sensor_id;sensor_type;location;lat;lon;timestamp;temperature;humidity
22532;DHT22;11432;46.924;7.114;2023-02-03T00:01:00;2.90;1.00
22532;DHT22;11432;46.924;7.114;2023-02-03T00:03:26;3.00;1.00
22532;DHT22;11432;46.924;7.114;2023-02-03T00:05:52;2.90;1.00
22532;DHT22;11432;46.924;7.114;2023-02-03T00:08:18;2.90;1.00
22532;DHT22;11432;46.924;7.114;2023-02-03T00:10:44;3.00;1.00
22532;DHT22;11432;46.924;7.114;2023-02-03T00:13:10;3.00;1.00
22532;DHT22;11432;46.924;7.114;2023-02-03T00:15:36;3.00;1.00
22532;DHT22;11432;46.924;7.114;2023-02-03T00:18:01;3.00;1.00
22532;DHT22;11432;46.924;7.114;2023-02-03T00:20:27;3.00;1.00
22532;DHT22;11432;46.924;7.114;2023-02-03T00:22:52;3.10;1.00
22532;DHT22;11432;46.924;7.114;2023-02-03T00:25:18;3.10;1.00
22532;DHT22;11432;46.924;7.114;2023-02-03T00:27:46;3.00;1.00
22532;DHT22;11432;46.924;7.114;2023-02-03T00:30:12;3.00;1.00
22532;DHT22;11432;46.924;7.114;2023-02-03T00:32:37;3.00;1.00
22532;DHT22;11432;46.924;7.114;2023-02-03T00:35:04;3.10;1.00
22532;DHT22;11432;46.924;7.114;2023-02-03T00:37:29;3.10;1.00
22532;DHT22;11432;46.924;7.114;2023-02-03T00:39:55;3.00;1.00
22532;DHT22;11432;46.924;7.114;2023-02-03T00:42:21;3.00;1.00
22532;DHT22;11432;46.924;7.114;2023-02-03T00:44:46;3.00;1.00
22532;DHT22;11432;46.924;7.114;2023-02-03T00:47:12;3.10;1.00
22532;DHT22;11432;46.924;7.114;2023-02-03T00:49:38;3.10;1.00
22532;DHT22;11432;46.924;7.114;2023-02-03T00:52:04;3.20;1.00
22532;DHT22;11432;46.924;7.114;2023-02-03T00:54:29;3.10;1.00
22532;DHT22;11432;46.924;7.114;2023-02-03T00:56:55;3.10;1.00
22532;DHT22;11432;46.924;7.114;2023-02-03T00:59:21;3.20;1.00
22532;DHT22;11432;46.924;7.114;2023-02-03T01:01:46;3.20;1.00
22532;DHT22;11432;46.924;7.114;2023-02-03T01:04:14;3.20;1.00
22532;DHT22;11432;46.924;7.114;2023-02-03T01:06:40;3.20;1.00
22532;DHT22;11432;46.924;7.114;2023-02-03T01:09:06;3.20;1.00
22532;DHT22;11432;46.924;7.114;2023-02-03T01:11:31;3.20;1.00
22532;DHT22;11432;46.924;7.114;2023-02-03T01:13:57;3.20;1.00
22532;DHT22;11432;46.924;7.114;2023-02-03T01:16:28;3.20;1.00
22532;DHT22;11432;46.924;7.114;2023-02-03T01:18:54;3.20;1.00
22532;DHT22;11432;46.924;7.114;2023-02-03T01:21:25;3.20;1.00
22532;DHT22;11432;46.924;7.114;2023-02-03T01:23:50;3.20;1.00
22532;DHT22;11432;46.924;7.114;2023-02-03T01:26:19;3.20;1.00
22532;DHT22;11432;46.924;7.114;2023-02-03T01:28:52;3.20;1.00
22532;DHT22;11432;46.924;7.114;2023-02-03T01:31:21;3.10;1.00
22532;DHT22;11432;46.924;7.114;2023-02-03T01:33:47;3.10;1.00
22532;DHT22;11432;46.924;7.114;2023-02-03T01:36:16;3.10;1.00
22532;DHT22;11432;46.924;7.114;2023-02-03T01:38:42;3.10;1.00
22532;DHT22;11432;46.924;7.114;2023-02-03T01:41:20;3.10;1.00
22532;DHT22;11432;46.924;7.114;2023-02-03T01:43:48;3.20;1.00
22532;DHT22;11432;46.924;7.114;2023-02-03T01:46:25;3.20;1.00
22532;DHT22;11432;46.924;7.114;2023-02-03T01:48:53;3.20;1.00
22532;DHT22;11432;46.924;7.114;2023-02-03T01:51:21;3.20;1.00
22532;DHT22;11432;46.924;7.114;2023-02-03T01:53:48;3.20;1.00
22532;DHT22;11432;46.924;7.114;2023-02-03T01:56:14;3.20;1.00
22532;DHT22;11432;46.924;7.114;2023-02-03T01:58:41;3.20;1.00
22532;DHT22;11432;46.924;7.114;2023-02-03T02:01:07;3.20;1.00
22532;DHT22;11432;46.924;7.114;2023-02-03T02:03:43;3.30;1.00
22532;DHT22;11432;46.924;7.114;2023-02-03T02:06:11;3.30;1.00
22532;DHT22;11432;46.924;7.114;2023-02-03T02:08:40;3.30;1.00
22532;DHT22;11432;46.924;7.114;2023-02-03T02:11:06;3.30;1.00
22532;DHT22;11432;46.924;7.114;2023-02-03T02:13:33;3.20;1.00
22532;DHT22;11432;46.924;7.114;2023-02-03T02:16:15;3.10;1.00
22532;DHT22;11432;46.924;7.114;2023-02-03T02:24:33;3.20;1.00
22532;DHT22;11432;46.924;7.114;2023-02-03T02:35:35;3.30;1.00
22532;DHT22;11432;46.924;7.114;2023-02-03T02:40:52;3.20;1.00
22532;DHT22;11432;46.924;7.114;2023-02-03T02:45:51;3.30;1.00
22532;DHT22;11432;46.924;7.114;2023-02-03T02:48:31;3.30;1.00
22532;DHT22;11432;46.924;7.114;2023-02-03T02:51:02;3.20;1.00
22532;DHT22;11432;46.924;7.114;2023-02-03T02:53:33;3.20;1.00
22532;DHT22;11432;46.924;7.114;2023-02-03T02:56:04;3.20;1.00
22532;DHT22;11432;46.924;7.114;2023-02-03T02:58:31;3.20;1.00
22532;DHT22;11432;46.924;7.114;2023-02-03T03:00:58;3.20;1.00
22532;DHT22;11432;46.924;7.114;2023-02-03T03:03:23;3.20;1.00
22532;DHT22;11432;46.924;7.114;2023-02-03T03:06:06;3.30;1.00
22532;DHT22;11432;46.924;7.114;2023-02-03T03:11:10;3.30;1.00
22532;DHT22;11432;46.924;7.114;2023-02-03T03:13:47;3.40;1.00
22532;DHT22;11432;46.924;7.114;2023-02-03T03:16:14;3.30;1.00
22532;DHT22;11432;46.924;7.114;2023-02-03T03:18:57;3.40;1.00
22532;DHT22;11432;46.924;7.114;2023-02-03T03:21:31;3.40;1.00
22532;DHT22;11432;46.924;7.114;2023-02-03T03:24:02;3.40;1.00
22532;DHT22;11432;46.924;7.114;2023-02-03T03:26:34;3.50;1.00
22532;DHT22;11432;46.924;7.114;2023-02-03T03:29:14;3.50;1.00
22532;DHT22;11432;46.924;7.114;2023-02-03T03:31:43;3.60;1.00
22532;DHT22;11432;46.924;7.114;2023-02-03T03:34:11;3.60;1.00
22532;DHT22;11432;46.924;7.114;2023-02-03T03:36:58;3.60;1.00
22532;DHT22;11432;46.924;7.114;2023-02-03T03:42:49;3.50;1.00
22532;DHT22;11432;46.924;7.114;2023-02-03T03:50:00;3.60;1.00
22532;DHT22;11432;46.924;7.114;2023-02-03T03:52:30;3.60;99.90
22532;DHT22;11432;46.924;7.114;2023-02-03T03:54:58;3.60;99.90
22532;DHT22;11432;46.924;7.114;2023-02-03T03:57:56;3.60;99.90
22532;DHT22;11432;46.924;7.114;2023-02-03T04:00:26;3.70;99.90
22532;DHT22;11432;46.924;7.114;2023-02-03T04:02:53;3.70;99.90
22532;DHT22;11432;46.924;7.114;2023-02-03T04:05:20;3.70;99.90
22532;DHT22;11432;46.924;7.114;2023-02-03T04:07:47;3.70;99.90
22532;DHT22;11432;46.924;7.114;2023-02-03T04:12:47;3.70;99.90
22532;DHT22;11432;46.924;7.114;2023-02-03T04:15:13;3.70;99.90
22532;DHT22;11432;46.924;7.114;2023-02-03T04:17:39;3.70;1.00
22532;DHT22;11432;46.924;7.114;2023-02-03T04:20:04;3.60;1.00
22532;DHT22;11432;46.924;7.114;2023-02-03T04:22:30;3.50;99.90
22532;DHT22;11432;46.924;7.114;2023-02-03T04:24:56;3.50;99.90
22532;DHT22;11432;46.924;7.114;2023-02-03T04:27:24;3.40;99.90
22532;DHT22;11432;46.924;7.114;2023-02-03T04:29:50;3.40;99.90
22532;DHT22;11432;46.924;7.114;2023-02-03T04:32:15;3.40;99.90
22532;DHT22;11432;46.924;7.114;2023-02-03T04:34:41;3.40;99.90
22532;DHT22;11432;46.924;7.114;2023-02-03T04:37:07;3.40;99.90
22532;DHT22;11432;46.924;7.114;2023-02-03T04:39:32;3.40;99.90
22532;DHT22;11432;46.924;7.114;2023-02-03T04:41:58;3.50;99.90
22532;DHT22;11432;46.924;7.114;2023-02-03T04:44:23;3.50;99.90
22532;DHT22;11432;46.924;7.114;2023-02-03T04:46:49;3.50;99.90
22532;DHT22;11432;46.924;7.114;2023-02-03T04:49:15;3.50;99.90
22532;DHT22;11432;46.924;7.114;2023-02-03T04:51:42;3.40;1.00
22532;DHT22;11432;46.924;7.114;2023-02-03T04:54:09;3.40;1.00
22532;DHT22;11432;46.924;7.114;2023-02-03T04:56:34;3.40;1.00
22532;DHT22;11432;46.924;7.114;2023-02-03T04:59:00;3.40;1.00
22532;DHT22;11432;46.924;7.114;2023-02-03T05:01:26;3.30;1.00
22532;DHT22;11432;46.924;7.114;2023-02-03T05:03:51;3.30;1.00
22532;DHT22;11432;46.924;7.114;2023-02-03T05:06:22;3.20;1.00
22532;DHT22;11432;46.924;7.114;2023-02-03T05:08:48;3.10;1.00
22532;DHT22;11432;46.924;7.114;2023-02-03T05:11:15;3.00;1.00
22532;DHT22;11432;46.924;7.114;2023-02-03T05:13:40;2.90;1.00
22532;DHT22;11432;46.924;7.114;2023-02-03T05:16:06;2.90;1.00
22532;DHT22;11432;46.924;7.114;2023-02-03T05:18:31;2.80;1.00
22532;DHT22;11432;46.924;7.114;2023-02-03T05:20:57;2.80;1.00
22532;DHT22;11432;46.924;7.114;2023-02-03T05:23:23;2.80;1.00
22532;DHT22;11432;46.924;7.114;2023-02-03T05:25:48;2.80;1.00
22532;DHT22;11432;46.924;7.114;2023-02-03T05:28:14;2.70;1.00
22532;DHT22;11432;46.924;7.114;2023-02-03T05:30:40;2.70;1.00
22532;DHT22;11432;46.924;7.114;2023-02-03T05:33:05;2.70;10.60
22532;DHT22;11432;46.924;7.114;2023-02-03T05:35:31;2.70;9.90
22532;DHT22;11432;46.924;7.114;2023-02-03T05:37:56;2.70;2.60
22532;DHT22;11432;46.924;7.114;2023-02-03T05:40:23;2.60;1.00
22532;DHT22;11432;46.924;7.114;2023-02-03T05:43:08;2.40;1.00
22532;DHT22;11432;46.924;7.114;2023-02-03T05:45:34;2.40;1.00
22532;DHT22;11432;46.924;7.114;2023-02-03T05:47:59;2.30;1.00
22532;DHT22;11432;46.924;7.114;2023-02-03T05:50:28;2.20;1.00
22532;DHT22;11432;46.924;7.114;2023-02-03T05:53:00;2.10;1.00
22532;DHT22;11432;46.924;7.114;2023-02-03T05:55:27;2.10;1.00
22532;DHT22;11432;46.924;7.114;2023-02-03T05:57:53;2.00;20.80
22532;DHT22;11432;46.924;7.114;2023-02-03T06:00:19;2.00;30.50
22532;DHT22;11432;46.924;7.114;2023-02-03T06:02:51;1.90;42.10
22532;DHT22;11432;46.924;7.114;2023-02-03T06:05:17;1.90;58.10
22532;DHT22;11432;46.924;7.114;2023-02-03T06:07:43;1.90;62.90
22532;DHT22;11432;46.924;7.114;2023-02-03T06:10:08;1.80;86.90
22532;DHT22;11432;46.924;7.114;2023-02-03T06:12:36;1.80;76.70
22532;DHT22;11432;46.924;7.114;2023-02-03T06:15:01;1.70;92.40
22532;DHT22;11432;46.924;7.114;2023-02-03T06:17:27;1.70;96.40
22532;DHT22;11432;46.924;7.114;2023-02-03T06:19:52;1.60;99.90
22532;DHT22;11432;46.924;7.114;2023-02-03T06:22:18;1.60;99.90
22532;DHT22;11432;46.924;7.114;2023-02-03T06:24:43;1.60;99.90
22532;DHT22;11432;46.924;7.114;2023-02-03T06:27:10;1.50;99.90
22532;DHT22;11432;46.924;7.114;2023-02-03T06:29:36;1.50;99.90
22532;DHT22;11432;46.924;7.114;2023-02-03T06:32:02;1.50;70.30
22532;DHT22;11432;46.924;7.114;2023-02-03T06:34:27;1.40;54.00
22532;DHT22;11432;46.924;7.114;2023-02-03T06:36:53;1.40;97.40
22532;DHT22;11432;46.924;7.114;2023-02-03T06:39:18;1.40;99.90
22532;DHT22;11432;46.924;7.114;2023-02-03T06:41:44;1.50;99.90
22532;DHT22;11432;46.924;7.114;2023-02-03T06:44:10;1.50;99.90
22532;DHT22;11432;46.924;7.114;2023-02-03T06:46:35;1.50;87.50
22532;DHT22;11432;46.924;7.114;2023-02-03T06:49:01;1.50;63.30
22532;DHT22;11432;46.924;7.114;2023-02-03T06:51:26;1.50;23.80
22532;DHT22;11432;46.924;7.114;2023-02-03T06:53:52;1.50;10.20
22532;DHT22;11432;46.924;7.114;2023-02-03T06:57:34;1.50;1.00
22532;DHT22;11432;46.924;7.114;2023-02-03T07:00:00;1.60;1.00
22532;DHT22;11432;46.924;7.114;2023-02-03T07:02:26;1.70;1.00
22532;DHT22;11432;46.924;7.114;2023-02-03T07:04:51;1.70;1.00
22532;DHT22;11432;46.924;7.114;2023-02-03T07:07:17;1.70;1.00
22532;DHT22;11432;46.924;7.114;2023-02-03T07:09:42;1.80;99.90
22532;DHT22;11432;46.924;7.114;2023-02-03T07:12:08;1.70;99.90
22532;DHT22;11432;46.924;7.114;2023-02-03T07:14:34;1.80;99.90
22532;DHT22;11432;46.924;7.114;2023-02-03T07:17:01;1.80;99.90
22532;DHT22;11432;46.924;7.114;2023-02-03T07:19:27;1.80;99.90
22532;DHT22;11432;46.924;7.114;2023-02-03T07:21:53;1.80;99.90
22532;DHT22;11432;46.924;7.114;2023-02-03T07:24:19;1.70;99.90
22532;DHT22;11432;46.924;7.114;2023-02-03T07:26:44;1.70;1.00
22532;DHT22;11432;46.924;7.114;2023-02-03T07:29:10;1.60;1.00
22532;DHT22;11432;46.924;7.114;2023-02-03T07:31:35;1.70;1.00
22532;DHT22;11432;46.924;7.114;2023-02-03T07:34:02;1.70;99.90
22532;DHT22;11432;46.924;7.114;2023-02-03T07:36:28;1.80;1.00
22532;DHT22;11432;46.924;7.114;2023-02-03T07:38:54;2.20;1.00
22532;DHT22;11432;46.924;7.114;2023-02-03T07:41:20;2.40;1.00
22532;DHT22;11432;46.924;7.114;2023-02-03T07:43:45;2.60;1.00
22532;DHT22;11432;46.924;7.114;2023-02-03T07:46:11;2.70;99.90
22532;DHT22;11432;46.924;7.114;2023-02-03T07:48:37;2.70;63.80
22532;DHT22;11432;46.924;7.114;2023-02-03T07:51:03;2.70;99.90
22532;DHT22;11432;46.924;7.114;2023-02-03T07:53:29;2.70;99.90
22532;DHT22;11432;46.924;7.114;2023-02-03T07:56:01;2.70;99.90
22532;DHT22;11432;46.924;7.114;2023-02-03T07:58:28;2.70;99.90
22532;DHT22;11432;46.924;7.114;2023-02-03T08:00:53;2.70;96.10
22532;DHT22;11432;46.924;7.114;2023-02-03T08:03:19;2.80;1.00
22532;DHT22;11432;46.924;7.114;2023-02-03T08:05:44;2.90;1.00
22532;DHT22;11432;46.924;7.114;2023-02-03T08:08:11;3.00;1.00
22532;DHT22;11432;46.924;7.114;2023-02-03T08:10:36;3.00;99.90
22532;DHT22;11432;46.924;7.114;2023-02-03T08:13:02;3.20;1.00
22532;DHT22;11432;46.924;7.114;2023-02-03T08:15:28;3.20;1.00
22532;DHT22;11432;46.924;7.114;2023-02-03T08:17:53;3.30;1.00
22532;DHT22;11432;46.924;7.114;2023-02-03T08:20:19;3.40;1.00
22532;DHT22;11432;46.924;7.114;2023-02-03T08:22:45;3.50;1.00
22532;DHT22;11432;46.924;7.114;2023-02-03T08:25:10;3.60;1.00
22532;DHT22;11432;46.924;7.114;2023-02-03T08:27:36;3.70;99.90
22532;DHT22;11432;46.924;7.114;2023-02-03T08:30:03;3.70;99.90
22532;DHT22;11432;46.924;7.114;2023-02-03T08:32:28;3.80;1.00
22532;DHT22;11432;46.924;7.114;2023-02-03T08:34:54;3.70;99.90
22532;DHT22;11432;46.924;7.114;2023-02-03T08:37:21;3.70;1.00
22532;DHT22;11432;46.924;7.114;2023-02-03T08:39:49;3.70;99.90
22532;DHT22;11432;46.924;7.114;2023-02-03T08:42:15;3.80;99.90
22532;DHT22;11432;46.924;7.114;2023-02-03T08:44:41;3.80;99.90
22532;DHT22;11432;46.924;7.114;2023-02-03T08:47:09;3.90;1.00
22532;DHT22;11432;46.924;7.114;2023-02-03T08:49:35;3.90;99.90
22532;DHT22;11432;46.924;7.114;2023-02-03T08:52:04;3.90;99.90
22532;DHT22;11432;46.924;7.114;2023-02-03T08:54:30;4.00;99.90
22532;DHT22;11432;46.924;7.114;2023-02-03T08:56:56;4.00;99.90
22532;DHT22;11432;46.924;7.114;2023-02-03T08:59:22;4.10;99.90
22532;DHT22;11432;46.924;7.114;2023-02-03T09:01:48;4.10;99.90
22532;DHT22;11432;46.924;7.114;2023-02-03T09:04:15;4.10;1.00
22532;DHT22;11432;46.924;7.114;2023-02-03T09:06:49;4.20;1.00
22532;DHT22;11432;46.924;7.114;2023-02-03T09:09:15;4.10;1.00
22532;DHT22;11432;46.924;7.114;2023-02-03T09:11:41;4.20;1.00
22532;DHT22;11432;46.924;7.114;2023-02-03T09:14:08;4.20;1.00
22532;DHT22;11432;46.924;7.114;2023-02-03T09:16:34;4.30;1.00
22532;DHT22;11432;46.924;7.114;2023-02-03T09:18:59;4.20;99.90
22532;DHT22;11432;46.924;7.114;2023-02-03T09:21:25;4.30;99.90
22532;DHT22;11432;46.924;7.114;2023-02-03T09:23:51;4.30;1.00
22532;DHT22;11432;46.924;7.114;2023-02-03T09:26:17;4.40;1.00
22532;DHT22;11432;46.924;7.114;2023-02-03T09:28:42;4.40;1.00
22532;DHT22;11432;46.924;7.114;2023-02-03T09:31:13;4.50;99.90
22532;DHT22;11432;46.924;7.114;2023-02-03T09:33:42;4.60;99.90
22532;DHT22;11432;46.924;7.114;2023-02-03T09:36:08;4.70;99.90
22532;DHT22;11432;46.924;7.114;2023-02-03T09:38:34;4.70;1.00
22532;DHT22;11432;46.924;7.114;2023-02-03T09:43:55;4.90;1.00
22532;DHT22;11432;46.924;7.114;2023-02-03T09:46:27;5.00;99.90
22532;DHT22;11432;46.924;7.114;2023-02-03T09:49:11;5.10;1.00
22532;DHT22;11432;46.924;7.114;2023-02-03T09:52:07;5.20;1.00
22532;DHT22;11432;46.924;7.114;2023-02-03T09:54:39;5.30;1.00
22532;DHT22;11432;46.924;7.114;2023-02-03T09:57:35;5.30;1.00
22532;DHT22;11432;46.924;7.114;2023-02-03T10:00:02;5.20;1.00
22532;DHT22;11432;46.924;7.114;2023-02-03T10:02:42;5.20;1.00
22532;DHT22;11432;46.924;7.114;2023-02-03T10:16:33;5.20;1.00
22532;DHT22;11432;46.924;7.114;2023-02-03T10:19:03;5.40;1.00
22532;DHT22;11432;46.924;7.114;2023-02-03T10:21:35;5.40;1.00
22532;DHT22;11432;46.924;7.114;2023-02-03T10:24:23;5.50;1.00
22532;DHT22;11432;46.924;7.114;2023-02-03T10:26:51;5.60;1.00
22532;DHT22;11432;46.924;7.114;2023-02-03T10:29:20;5.80;99.90
22532;DHT22;11432;46.924;7.114;2023-02-03T10:31:48;6.00;99.90
22532;DHT22;11432;46.924;7.114;2023-02-03T10:34:16;6.30;99.90
22532;DHT22;11432;46.924;7.114;2023-02-03T10:39:40;7.70;1.00
22532;DHT22;11432;46.924;7.114;2023-02-03T10:42:08;9.00;99.90
22532;DHT22;11432;46.924;7.114;2023-02-03T10:44:37;10.20;1.00
22532;DHT22;11432;46.924;7.114;2023-02-03T10:47:39;10.90;1.00
22532;DHT22;11432;46.924;7.114;2023-02-03T10:50:14;11.50;1.00
22532;DHT22;11432;46.924;7.114;2023-02-03T10:52:40;11.40;1.00
22532;DHT22;11432;46.924;7.114;2023-02-03T10:55:13;11.20;1.00
22532;DHT22;11432;46.924;7.114;2023-02-03T10:57:53;11.30;1.00
22532;DHT22;11432;46.924;7.114;2023-02-03T11:00:23;11.60;1.00
22532;DHT22;11432;46.924;7.114;2023-02-03T11:05:31;11.30;1.00
22532;DHT22;11432;46.924;7.114;2023-02-03T11:07:57;11.60;1.00
22532;DHT22;11432;46.924;7.114;2023-02-03T11:10:31;11.60;1.00
22532;DHT22;11432;46.924;7.114;2023-02-03T11:13:18;12.30;1.00
22532;DHT22;11432;46.924;7.114;2023-02-03T11:16:03;13.10;1.00
22532;DHT22;11432;46.924;7.114;2023-02-03T11:21:09;13.30;1.00
22532;DHT22;11432;46.924;7.114;2023-02-03T11:23:37;13.50;1.00
22532;DHT22;11432;46.924;7.114;2023-02-03T11:26:11;13.60;1.00
22532;DHT22;11432;46.924;7.114;2023-02-03T11:28:44;13.80;1.00
22532;DHT22;11432;46.924;7.114;2023-02-03T11:31:37;13.70;1.00
22532;DHT22;11432;46.924;7.114;2023-02-03T11:34:05;14.00;1.00
22532;DHT22;11432;46.924;7.114;2023-02-03T11:36:33;14.30;99.90
22532;DHT22;11432;46.924;7.114;2023-02-03T11:39:16;13.00;99.90
22532;DHT22;11432;46.924;7.114;2023-02-03T11:41:42;13.70;99.90
22532;DHT22;11432;46.924;7.114;2023-02-03T11:44:28;14.30;99.90
22532;DHT22;11432;46.924;7.114;2023-02-03T11:47:15;13.90;99.90
22532;DHT22;11432;46.924;7.114;2023-02-03T11:50:08;14.80;99.90
22532;DHT22;11432;46.924;7.114;2023-02-03T12:13:09;13.80;99.90
22532;DHT22;11432;46.924;7.114;2023-02-03T12:21:38;15.30;99.90
22532;DHT22;11432;46.924;7.114;2023-02-03T12:30:38;13.60;99.90
22532;DHT22;11432;46.924;7.114;2023-02-03T12:34:17;14.70;99.90
22532;DHT22;11432;46.924;7.114;2023-02-03T12:36:27;15.30;99.90
22532;DHT22;11432;46.924;7.114;2023-02-03T12:39:14;15.30;99.90
22532;DHT22;11432;46.924;7.114;2023-02-03T12:41:49;16.10;99.90
22532;DHT22;11432;46.924;7.114;2023-02-03T12:47:21;15.00;99.90
22532;DHT22;11432;46.924;7.114;2023-02-03T12:52:40;16.20;99.90
22532;DHT22;11432;46.924;7.114;2023-02-03T12:55:19;15.70;99.90
22532;DHT22;11432;46.924;7.114;2023-02-03T12:57:59;16.50;99.90
22532;DHT22;11432;46.924;7.114;2023-02-03T13:00:55;16.10;99.90
22532;DHT22;11432;46.924;7.114;2023-02-03T13:03:41;15.00;99.90
22532;DHT22;11432;46.924;7.114;2023-02-03T13:14:16;14.30;99.90
22532;DHT22;11432;46.924;7.114;2023-02-03T13:16:46;15.30;99.90
22532;DHT22;11432;46.924;7.114;2023-02-03T13:19:26;15.70;99.90
22532;DHT22;11432;46.924;7.114;2023-02-03T13:21:53;14.60;99.90
22532;DHT22;11432;46.924;7.114;2023-02-03T13:24:22;14.90;99.90
22532;DHT22;11432;46.924;7.114;2023-02-03T13:29:57;14.40;99.90
22532;DHT22;11432;46.924;7.114;2023-02-03T13:35:38;15.90;99.90
22532;DHT22;11432;46.924;7.114;2023-02-03T13:43:44;16.00;99.90
22532;DHT22;11432;46.924;7.114;2023-02-03T13:46:29;15.80;99.90
22532;DHT22;11432;46.924;7.114;2023-02-03T13:48:59;15.50;99.90
22532;DHT22;11432;46.924;7.114;2023-02-03T13:51:36;15.10;99.90
22532;DHT22;11432;46.924;7.114;2023-02-03T13:54:03;14.00;99.90
22532;DHT22;11432;46.924;7.114;2023-02-03T13:56:30;14.00;99.90
22532;DHT22;11432;46.924;7.114;2023-02-03T14:01:39;14.20;99.90
22532;DHT22;11432;46.924;7.114;2023-02-03T14:04:07;14.10;99.90
22532;DHT22;11432;46.924;7.114;2023-02-03T14:11:49;13.30;99.90
22532;DHT22;11432;46.924;7.114;2023-02-03T14:16:45;12.10;99.90
22532;DHT22;11432;46.924;7.114;2023-02-03T14:24:32;10.70;99.90
22532;DHT22;11432;46.924;7.114;2023-02-03T14:27:00;10.60;99.90
22532;DHT22;11432;46.924;7.114;2023-02-03T14:29:32;10.60;99.90
22532;DHT22;11432;46.924;7.114;2023-02-03T14:34:41;10.60;99.90
22532;DHT22;11432;46.924;7.114;2023-02-03T14:42:30;10.10;99.90
22532;DHT22;11432;46.924;7.114;2023-02-03T14:53:50;9.90;99.90
22532;DHT22;11432;46.924;7.114;2023-02-03T14:59:02;9.40;1.00
22532;DHT22;11432;46.924;7.114;2023-02-03T15:06:44;9.00;1.00
22532;DHT22;11432;46.924;7.114;2023-02-03T15:09:24;8.90;1.00
22532;DHT22;11432;46.924;7.114;2023-02-03T15:11:51;8.80;1.00
22532;DHT22;11432;46.924;7.114;2023-02-03T15:14:21;8.70;1.00
22532;DHT22;11432;46.924;7.114;2023-02-03T15:16:56;8.70;1.00
22532;DHT22;11432;46.924;7.114;2023-02-03T15:19:25;8.70;1.00
22532;DHT22;11432;46.924;7.114;2023-02-03T15:21:52;8.60;1.00
22532;DHT22;11432;46.924;7.114;2023-02-03T15:24:19;8.60;1.00
22532;DHT22;11432;46.924;7.114;2023-02-03T15:26:50;8.60;1.00
22532;DHT22;11432;46.924;7.114;2023-02-03T15:29:28;8.60;1.00
22532;DHT22;11432;46.924;7.114;2023-02-03T15:32:04;8.50;1.00
22532;DHT22;11432;46.924;7.114;2023-02-03T15:34:47;8.50;1.00
22532;DHT22;11432;46.924;7.114;2023-02-03T15:37:26;8.30;1.00
22532;DHT22;11432;46.924;7.114;2023-02-03T15:45:32;8.20;1.00
22532;DHT22;11432;46.924;7.114;2023-02-03T15:48:04;8.10;1.00
22532;DHT22;11432;46.924;7.114;2023-02-03T15:50:32;8.10;1.00
22532;DHT22;11432;46.924;7.114;2023-02-03T15:53:21;8.10;1.00
22532;DHT22;11432;46.924;7.114;2023-02-03T15:55:50;8.10;1.00
22532;DHT22;11432;46.924;7.114;2023-02-03T15:58:21;8.00;1.00
22532;DHT22;11432;46.924;7.114;2023-02-03T16:00:54;7.90;1.00
22532;DHT22;11432;46.924;7.114;2023-02-03T16:03:33;7.90;1.00
22532;DHT22;11432;46.924;7.114;2023-02-03T16:06:15;7.80;1.00
22532;DHT22;11432;46.924;7.114;2023-02-03T16:08:43;7.80;1.00
22532;DHT22;11432;46.924;7.114;2023-02-03T16:11:29;7.70;1.00
22532;DHT22;11432;46.924;7.114;2023-02-03T16:13:57;7.70;1.00
22532;DHT22;11432;46.924;7.114;2023-02-03T16:16:35;7.70;1.00
22532;DHT22;11432;46.924;7.114;2023-02-03T16:19:11;7.60;1.00
22532;DHT22;11432;46.924;7.114;2023-02-03T16:30:16;7.40;1.00
22532;DHT22;11432;46.924;7.114;2023-02-03T16:33:12;7.30;1.00
22532;DHT22;11432;46.924;7.114;2023-02-03T16:36:01;7.20;1.00
22532;DHT22;11432;46.924;7.114;2023-02-03T16:38:46;7.20;1.00
22532;DHT22;11432;46.924;7.114;2023-02-03T16:41:31;7.10;17.40
22532;DHT22;11432;46.924;7.114;2023-02-03T16:44:15;7.10;1.00
22532;DHT22;11432;46.924;7.114;2023-02-03T16:47:00;7.10;1.00
22532;DHT22;11432;46.924;7.114;2023-02-03T16:49:44;7.10;1.00
22532;DHT22;11432;46.924;7.114;2023-02-03T16:52:28;7.00;1.00
22532;DHT22;11432;46.924;7.114;2023-02-03T16:54:54;7.10;1.00
22532;DHT22;11432;46.924;7.114;2023-02-03T16:57:19;7.10;1.00
22532;DHT22;11432;46.924;7.114;2023-02-03T16:59:45;7.10;1.00
22532;DHT22;11432;46.924;7.114;2023-02-03T17:02:11;7.00;1.00
22532;DHT22;11432;46.924;7.114;2023-02-03T17:04:36;7.00;1.00
22532;DHT22;11432;46.924;7.114;2023-02-03T17:07:02;6.90;1.00
22532;DHT22;11432;46.924;7.114;2023-02-03T17:09:30;6.90;1.00
22532;DHT22;11432;46.924;7.114;2023-02-03T17:12:02;6.90;1.00
22532;DHT22;11432;46.924;7.114;2023-02-03T17:14:28;6.80;1.00
22532;DHT22;11432;46.924;7.114;2023-02-03T17:16:54;6.80;1.00
22532;DHT22;11432;46.924;7.114;2023-02-03T17:19:20;6.80;1.00
22532;DHT22;11432;46.924;7.114;2023-02-03T17:21:45;6.80;1.00
22532;DHT22;11432;46.924;7.114;2023-02-03T17:24:12;6.80;12.20
22532;DHT22;11432;46.924;7.114;2023-02-03T17:26:38;6.70;8.70
22532;DHT22;11432;46.924;7.114;2023-02-03T17:29:04;6.80;1.00
22532;DHT22;11432;46.924;7.114;2023-02-03T17:31:31;6.80;1.00
22532;DHT22;11432;46.924;7.114;2023-02-03T17:33:57;6.90;1.00
22532;DHT22;11432;46.924;7.114;2023-02-03T17:36:23;6.80;1.00
22532;DHT22;11432;46.924;7.114;2023-02-03T17:38:54;6.80;1.00
22532;DHT22;11432;46.924;7.114;2023-02-03T17:41:22;6.70;1.00
22532;DHT22;11432;46.924;7.114;2023-02-03T17:43:50;6.70;1.00
22532;DHT22;11432;46.924;7.114;2023-02-03T17:46:22;6.70;1.00
22532;DHT22;11432;46.924;7.114;2023-02-03T17:48:48;6.70;1.00
22532;DHT22;11432;46.924;7.114;2023-02-03T17:51:17;6.60;18.00
22532;DHT22;11432;46.924;7.114;2023-02-03T17:53:43;6.60;1.00
22532;DHT22;11432;46.924;7.114;2023-02-03T17:56:17;6.70;1.00
22532;DHT22;11432;46.924;7.114;2023-02-03T17:58:44;6.80;1.00
22532;DHT22;11432;46.924;7.114;2023-02-03T18:01:17;6.80;1.00
22532;DHT22;11432;46.924;7.114;2023-02-03T18:03:45;6.80;1.00
22532;DHT22;11432;46.924;7.114;2023-02-03T18:06:12;6.70;1.00
22532;DHT22;11432;46.924;7.114;2023-02-03T18:08:39;6.80;1.00
22532;DHT22;11432;46.924;7.114;2023-02-03T18:11:05;6.80;1.00
22532;DHT22;11432;46.924;7.114;2023-02-03T18:13:31;6.80;1.00
22532;DHT22;11432;46.924;7.114;2023-02-03T18:16:01;6.80;1.00
22532;DHT22;11432;46.924;7.114;2023-02-03T18:18:27;6.70;1.00
22532;DHT22;11432;46.924;7.114;2023-02-03T18:20:53;6.70;1.00
22532;DHT22;11432;46.924;7.114;2023-02-03T18:23:19;6.70;1.00
22532;DHT22;11432;46.924;7.114;2023-02-03T18:25:52;6.70;1.00
22532;DHT22;11432;46.924;7.114;2023-02-03T18:28:18;6.70;1.00
22532;DHT22;11432;46.924;7.114;2023-02-03T18:30:43;6.70;1.00
22532;DHT22;11432;46.924;7.114;2023-02-03T18:33:09;6.70;1.00
22532;DHT22;11432;46.924;7.114;2023-02-03T18:35:34;6.60;1.00
22532;DHT22;11432;46.924;7.114;2023-02-03T18:38:01;6.60;1.00
22532;DHT22;11432;46.924;7.114;2023-02-03T18:40:27;6.60;1.00
22532;DHT22;11432;46.924;7.114;2023-02-03T18:42:53;6.60;1.00
22532;DHT22;11432;46.924;7.114;2023-02-03T18:45:21;6.50;1.00
22532;DHT22;11432;46.924;7.114;2023-02-03T18:47:46;6.50;1.00
22532;DHT22;11432;46.924;7.114;2023-02-03T18:50:12;6.50;1.00
22532;DHT22;11432;46.924;7.114;2023-02-03T18:52:38;6.50;1.00
22532;DHT22;11432;46.924;7.114;2023-02-03T18:55:03;6.40;13.00
22532;DHT22;11432;46.924;7.114;2023-02-03T18:57:29;6.40;42.80
22532;DHT22;11432;46.924;7.114;2023-02-03T18:59:55;6.30;99.90